createdAt,value
2018-02-12T00:00:29.831Z,99.99
2018-02-12T00:01:29.834Z,99.99
2018-02-12T00:02:29.806Z,99.86
2018-02-12T00:03:29.786Z,99.99
2018-02-12T00:04:29.785Z,99.96
2018-02-12T00:05:29.768Z,99.99
2018-02-12T00:06:29.492Z,99.86
2018-02-12T00:07:29.748Z,99.99
2018-02-12T00:08:29.737Z,99.77
2018-02-12T00:09:29.452Z,99.99
2018-02-12T00:10:29.686Z,99.81
2018-02-12T00:11:29.673Z,99.99
2018-02-12T00:12:29.659Z,99.9
2018-02-12T00:13:29.647Z,99.99
2018-02-12T00:14:29.634Z,99.99
2018-02-12T00:15:29.613Z,99.99
2018-02-12T00:16:29.347Z,99.99
2018-02-12T00:17:29.587Z,99.99
2018-02-12T00:18:29.572Z,99.99
2018-02-12T00:19:29.561Z,99.99
2018-02-12T00:20:29.552Z,99.99
2018-02-12T00:21:29.534Z,99.99
2018-02-12T00:22:29.528Z,99.99
2018-02-12T00:23:29.501Z,99.99
2018-02-12T00:24:29.486Z,99.99
2018-02-12T00:25:29.465Z,99.99
2018-02-12T00:26:29.452Z,99.99
2018-02-12T00:27:29.441Z,99.99
2018-02-12T00:28:29.425Z,99.99
2018-02-12T00:29:29.409Z,99.99
2018-02-12T00:30:29.393Z,99.99
2018-02-12T00:31:29.378Z,99.99
2018-02-12T00:32:29.367Z,99.99
2018-02-12T00:33:29.359Z,99.99
2018-02-12T00:34:29.338Z,99.99
2018-02-12T00:35:29.324Z,99.99
2018-02-12T00:36:29.052Z,99.99
2018-02-12T00:37:29.038Z,99.99
2018-02-12T00:38:29.275Z,99.99
2018-02-12T00:39:29.262Z,99.99
2018-02-12T00:40:29.243Z,99.99
2018-02-12T00:41:29.230Z,99.99
2018-02-12T00:42:29.230Z,99.99
2018-02-12T00:43:29.200Z,99.99
2018-02-12T00:44:28.933Z,99.99
2018-02-12T00:45:29.591Z,99.99
2018-02-12T00:46:28.903Z,99.99
2018-02-12T00:47:28.886Z,99.99
2018-02-12T00:48:29.124Z,99.99
2018-02-12T00:49:29.107Z,99.99
2018-02-12T00:50:29.115Z,99.99
2018-02-12T00:51:28.825Z,99.99
2018-02-12T00:52:28.809Z,99.99
2018-02-12T00:53:29.045Z,99.99
2018-02-12T00:54:29.033Z,99.99
2018-02-12T00:55:28.761Z,99.99
2018-02-12T00:56:29.011Z,99.99
2018-02-12T00:57:28.990Z,99.99
2018-02-12T00:58:28.714Z,99.99
2018-02-12T00:59:28.957Z,99.99
2018-02-12T01:00:28.691Z,99.99
2018-02-12T01:01:28.671Z,99.99
2018-02-12T01:02:28.910Z,99.99
2018-02-12T01:03:28.894Z,99.99
2018-02-12T01:04:28.883Z,99.99
2018-02-12T01:05:28.858Z,99.99
2018-02-12T01:06:28.593Z,99.99
2018-02-12T01:07:28.578Z,99.99
2018-02-12T01:08:28.560Z,99.99
2018-02-12T01:09:28.816Z,99.99
2018-02-12T01:10:28.784Z,99.99
2018-02-12T01:11:28.769Z,99.99
2018-02-12T01:12:28.752Z,99.99
2018-02-12T01:13:28.742Z,99.99
2018-02-12T01:14:28.723Z,99.99
2018-02-12T01:15:28.712Z,99.99
2018-02-12T01:16:28.693Z,99.99
2018-02-12T01:17:43.337Z,99.99
2018-02-12T01:18:28.655Z,99.99
2018-02-12T01:19:28.390Z,99.99
2018-02-12T01:20:28.626Z,99.99
2018-02-12T01:21:28.611Z,99.99
2018-02-12T01:22:28.342Z,99.99
2018-02-12T01:23:28.578Z,99.99
2018-02-12T01:24:28.559Z,99.99
2018-02-12T01:25:28.557Z,99.99
2018-02-12T01:26:28.280Z,99.99
2018-02-12T01:27:28.514Z,99.99
2018-02-12T01:28:28.499Z,99.99
2018-02-12T01:29:28.485Z,99.99
2018-02-12T01:30:28.466Z,99.99
2018-02-12T01:31:28.453Z,99.99
2018-02-12T01:32:28.436Z,99.99
2018-02-12T01:33:28.420Z,99.99
2018-02-12T01:34:28.405Z,99.99
2018-02-12T01:35:28.385Z,99.99
2018-02-12T01:36:28.381Z,99.99
2018-02-12T01:37:28.358Z,99.99
2018-02-12T01:38:28.336Z,99.99
2018-02-12T01:39:28.325Z,99.99
2018-02-12T01:40:28.309Z,99.99
2018-02-12T01:41:28.291Z,99.99
2018-02-12T01:42:28.025Z,99.99
2018-02-12T01:43:28.261Z,99.99
2018-02-12T01:44:28.247Z,99.99
2018-02-12T01:45:27.976Z,99.99
2018-02-12T01:46:28.214Z,99.99
2018-02-12T01:47:28.200Z,99.99
2018-02-12T01:48:28.189Z,99.99
2018-02-12T01:49:28.168Z,99.99
2018-02-12T01:50:28.148Z,99.99
2018-02-12T01:51:27.883Z,99.99
2018-02-12T01:52:28.115Z,99.99
2018-02-12T01:53:28.102Z,99.99
2018-02-12T01:54:28.087Z,99.99
2018-02-12T01:55:28.072Z,99.99
2018-02-12T01:56:28.056Z,99.99
2018-02-12T01:57:28.046Z,99.99
2018-02-12T01:58:28.018Z,99.99
2018-02-12T01:59:27.752Z,99.99
2018-02-12T02:00:27.988Z,99.99
2018-02-12T02:01:27.972Z,99.99
2018-02-12T02:02:27.959Z,99.99
2018-02-12T02:03:27.940Z,99.99
2018-02-12T02:04:27.669Z,99.99
2018-02-12T02:05:27.908Z,99.99
2018-02-12T02:06:27.640Z,99.99
2018-02-12T02:07:27.877Z,99.99
2018-02-12T02:08:27.867Z,99.99
2018-02-12T02:09:27.911Z,99.99
2018-02-12T02:10:27.826Z,99.99
2018-02-12T02:11:27.811Z,99.99
2018-02-12T02:12:27.803Z,99.99
2018-02-12T02:13:27.781Z,99.99
2018-02-12T02:14:27.509Z,99.99
2018-02-12T02:15:27.748Z,99.99
2018-02-12T02:16:27.481Z,99.99
2018-02-12T02:17:27.464Z,99.99
2018-02-12T02:18:27.701Z,99.99
2018-02-12T02:19:27.434Z,99.99
2018-02-12T02:20:27.668Z,99.99
2018-02-12T02:21:27.654Z,99.99
2018-02-12T02:22:27.382Z,99.99
2018-02-12T02:23:27.369Z,99.99
2018-02-12T02:24:27.350Z,99.99
2018-02-12T02:25:27.583Z,99.99
2018-02-12T02:26:27.568Z,99.99
2018-02-12T02:27:27.551Z,99.99
2018-02-12T02:28:27.535Z,99.99
2018-02-12T02:29:27.266Z,99.99
2018-02-12T02:30:27.513Z,99.99
2018-02-12T02:31:27.490Z,99.99
2018-02-12T02:32:27.473Z,99.99
2018-02-12T02:33:27.457Z,99.99
2018-02-12T02:34:27.444Z,99.99
2018-02-12T02:35:27.426Z,99.99
2018-02-12T02:36:27.407Z,99.99
2018-02-12T02:37:27.392Z,99.99
2018-02-12T02:38:27.374Z,99.99
2018-02-12T02:39:27.360Z,99.99
2018-02-12T02:40:27.343Z,99.99
2018-02-12T02:41:27.323Z,99.99
2018-02-12T02:42:27.308Z,99.99
2018-02-12T02:43:27.039Z,99.99
2018-02-12T02:44:27.024Z,99.99
2018-02-12T02:45:27.264Z,99.99
2018-02-12T02:46:27.245Z,99.99
2018-02-12T02:47:26.974Z,99.99
2018-02-12T02:48:27.208Z,99.99
2018-02-12T02:49:26.940Z,99.99
2018-02-12T02:50:27.190Z,99.99
2018-02-12T02:51:27.162Z,99.99
2018-02-12T02:52:26.891Z,99.99
2018-02-12T02:53:27.129Z,99.99
2018-02-12T02:54:27.111Z,99.99
2018-02-12T02:55:26.843Z,99.99
2018-02-12T02:56:27.078Z,99.99
2018-02-12T02:57:26.812Z,99.99
2018-02-12T02:58:27.056Z,99.99
2018-02-12T02:59:26.777Z,99.99
2018-02-12T03:00:27.013Z,99.99
2018-02-12T03:01:27.004Z,99.99
2018-02-12T03:02:26.979Z,99.99
2018-02-12T03:03:26.966Z,99.99
2018-02-12T03:04:26.696Z,99.99
2018-02-12T03:05:26.930Z,99.99
2018-02-12T03:06:26.913Z,99.99
2018-02-12T03:07:26.646Z,99.99
2018-02-12T03:08:26.886Z,99.99
2018-02-12T03:09:26.614Z,99.99
2018-02-12T03:10:26.597Z,99.99
2018-02-12T03:11:26.880Z,99.99
2018-02-12T03:12:26.818Z,99.99
2018-02-12T03:13:26.798Z,99.99
2018-02-12T03:14:26.529Z,99.99
2018-02-12T03:15:26.772Z,99.99
2018-02-12T03:16:26.753Z,99.99
2018-02-12T03:17:26.733Z,99.99
2018-02-12T03:18:26.726Z,99.99
2018-02-12T03:19:26.452Z,99.99
2018-02-12T03:20:26.688Z,99.99
2018-02-12T03:21:26.673Z,99.99
2018-02-12T03:22:26.654Z,99.99
2018-02-12T03:23:26.644Z,99.99
2018-02-12T03:24:26.620Z,99.99
2018-02-12T03:25:26.607Z,99.99
2018-02-12T03:26:26.589Z,99.99
2018-02-12T03:27:26.573Z,99.99
2018-02-12T03:28:26.559Z,99.99
2018-02-12T03:29:26.542Z,99.99
2018-02-12T03:30:26.534Z,99.99
2018-02-12T03:31:26.512Z,99.99
2018-02-12T03:33:26.485Z,99.99
2018-02-12T03:34:26.468Z,99.99
2018-02-12T03:35:26.450Z,99.85
2018-02-12T03:36:26.433Z,99.85
2018-02-12T03:37:26.416Z,99.85
2018-02-12T03:38:26.404Z,99.95
2018-02-12T03:39:26.386Z,99.29
2018-02-12T03:40:26.369Z,99.66
2018-02-12T03:41:26.357Z,99.29
2018-02-12T03:42:26.090Z,99.76
2018-02-12T03:43:26.326Z,99.57
2018-02-12T03:44:26.308Z,99.29
2018-02-12T03:45:26.297Z,99.01
2018-02-12T03:46:26.278Z,98.91
2018-02-12T03:47:26.018Z,99.29
2018-02-12T03:48:25.995Z,99.19
2018-02-12T03:49:25.986Z,98.82
2018-02-12T03:50:25.964Z,98.96
2018-02-12T03:51:25.950Z,98.86
2018-02-12T03:52:26.186Z,98.63
2018-02-12T03:53:26.172Z,98.72
2018-02-12T03:54:26.158Z,98.25
2018-02-12T03:55:26.143Z,98.25
2018-02-12T03:56:26.127Z,98.44
2018-02-12T03:57:26.117Z,98.25
2018-02-12T03:58:26.096Z,98.44
2018-02-12T03:59:26.081Z,98.63
2018-02-12T04:00:26.075Z,98.53
2018-02-12T04:01:26.049Z,98.82
2018-02-12T04:02:26.034Z,98.34
2018-02-12T04:03:26.018Z,98.72
2018-02-12T04:04:26.005Z,99.1
2018-02-12T04:05:25.988Z,98.82
2018-02-12T04:06:25.973Z,99.01
2018-02-12T04:07:25.705Z,99.19
2018-02-12T04:08:25.687Z,99.01
2018-02-12T04:09:25.926Z,99.1
2018-02-12T04:10:25.910Z,99.29
2018-02-12T04:11:25.895Z,99.19
2018-02-12T04:12:25.881Z,99.38
2018-02-12T04:13:25.870Z,99.38
2018-02-12T04:14:25.851Z,99.1
2018-02-12T04:15:25.880Z,99.1
2018-02-12T04:16:25.819Z,99.38
2018-02-12T04:17:25.807Z,99.19
2018-02-12T04:18:25.790Z,99.01
2018-02-12T04:19:25.775Z,98.91
2018-02-12T04:20:25.759Z,98.86
2018-02-12T04:21:25.740Z,99.24
2018-02-12T04:22:25.736Z,98.68
2018-02-12T04:23:25.715Z,98.86
2018-02-12T04:24:25.442Z,99.05
2018-02-12T04:25:25.431Z,98.39
2018-02-12T04:26:25.412Z,98.86
2018-02-12T04:27:25.654Z,98.96
2018-02-12T04:28:25.638Z,98.68
2018-02-12T04:29:25.619Z,98.3
2018-02-12T04:30:25.354Z,98.2
2018-02-12T04:31:25.351Z,98.11
2018-02-12T04:32:25.576Z,98.3
2018-02-12T04:33:25.561Z,98.11
2018-02-12T04:34:25.547Z,98.49
2018-02-12T04:35:25.528Z,98.39
2018-02-12T04:36:25.515Z,98.3
2018-02-12T04:37:25.245Z,97.54
2018-02-12T04:38:25.234Z,98.11
2018-02-12T04:39:25.475Z,97.82
2018-02-12T04:40:25.203Z,97.73
2018-02-12T04:41:25.443Z,97.73
2018-02-12T04:42:25.173Z,97.73
2018-02-12T04:43:25.159Z,97.16
2018-02-12T04:44:25.146Z,97.35
2018-02-12T04:45:25.383Z,96.78
2018-02-12T04:46:25.370Z,97.16
2018-02-12T04:47:25.350Z,97.11
2018-02-12T04:48:25.340Z,97.16
2018-02-12T04:49:39.986Z,96.97
2018-02-12T04:50:25.312Z,97.11
2018-02-12T04:51:25.293Z,96.92
2018-02-12T04:52:25.280Z,97.16
2018-02-12T04:53:25.265Z,97.21
2018-02-12T04:54:25.249Z,97.11
2018-02-12T04:55:25.234Z,97.49
2018-02-12T04:56:25.221Z,97.4
2018-02-12T04:57:25.202Z,97.02
2018-02-12T04:58:24.940Z,97.4
2018-02-12T04:59:25.175Z,97.4
2018-02-12T05:00:25.166Z,97.11
2018-02-12T05:01:25.145Z,96.92
2018-02-12T05:02:24.880Z,97.02
2018-02-12T05:03:25.124Z,97.11
2018-02-12T05:04:25.104Z,97.02
2018-02-12T05:05:25.085Z,96.73
2018-02-12T05:06:24.822Z,96.55
2018-02-12T05:07:24.806Z,96.73
2018-02-12T05:08:25.044Z,96.26
2018-02-12T05:09:25.033Z,96.45
2018-02-12T05:10:24.763Z,96.26
2018-02-12T05:11:24.747Z,96.83
2018-02-12T05:12:25.033Z,96.73
2018-02-12T05:13:24.972Z,96.26
2018-02-12T05:14:24.705Z,96.36
2018-02-12T05:15:24.691Z,96.45
2018-02-12T05:16:24.927Z,96.36
2018-02-12T05:17:24.917Z,96.45
2018-02-12T05:18:24.898Z,96.45
2018-02-12T05:19:24.633Z,96.45
2018-02-12T05:20:24.871Z,96.45
2018-02-12T05:21:24.608Z,96.64
2018-02-12T05:22:25.141Z,96.45
2018-02-12T05:23:24.576Z,96.64
2018-02-12T05:24:24.813Z,96.17
2018-02-12T05:25:24.800Z,95.88
2018-02-12T05:26:24.785Z,96.26
2018-02-12T05:27:24.770Z,96.36
2018-02-12T05:28:24.757Z,95.88
2018-02-12T05:29:24.739Z,95.98
2018-02-12T05:30:24.728Z,96.26
2018-02-12T05:31:24.459Z,96.26
2018-02-12T05:32:24.698Z,96.45
2018-02-12T05:33:24.684Z,96.45
2018-02-12T05:34:24.670Z,96.07
2018-02-12T05:35:24.663Z,95.98
2018-02-12T05:36:24.387Z,96.26
2018-02-12T05:37:24.625Z,95.98
2018-02-12T05:38:24.611Z,95.69
2018-02-12T05:39:24.598Z,95.79
2018-02-12T05:40:24.588Z,96.03
2018-02-12T05:41:24.318Z,95.6
2018-02-12T05:42:24.553Z,96.07
2018-02-12T05:43:24.541Z,96.03
2018-02-12T05:44:24.534Z,96.31
2018-02-12T05:45:24.261Z,96.12
2018-02-12T05:46:24.510Z,95.41
2018-02-12T05:47:24.488Z,95.31
2018-02-12T05:48:24.216Z,95.74
2018-02-12T05:49:24.454Z,95.12
2018-02-12T05:50:24.443Z,95.12
2018-02-12T05:51:24.428Z,95.5
2018-02-12T05:52:24.421Z,95.74
2018-02-12T05:53:24.398Z,95.31
2018-02-12T05:54:24.390Z,95.5
2018-02-12T05:55:24.372Z,95.69
2018-02-12T05:56:24.357Z,95.41
2018-02-12T05:57:24.091Z,95.5
2018-02-12T05:58:24.325Z,95.74
2018-02-12T05:59:24.060Z,95.41
2018-02-12T06:00:24.305Z,95.26
2018-02-12T06:01:24.284Z,95.41
2018-02-12T06:02:24.273Z,95.65
2018-02-12T06:03:24.003Z,95.36
2018-02-12T06:04:23.988Z,95.55
2018-02-12T06:05:24.231Z,95.5
2018-02-12T06:06:24.215Z,95.55
2018-02-12T06:07:24.207Z,95.17
2018-02-12T06:08:23.934Z,95.41
2018-02-12T06:09:24.170Z,95.31
2018-02-12T06:10:24.158Z,95.41
2018-02-12T06:11:24.145Z,95.41
2018-02-12T06:12:24.130Z,95.31
2018-02-12T06:13:24.118Z,95.55
2018-02-12T06:14:24.103Z,95.5
2018-02-12T06:15:24.088Z,95.41
2018-02-12T06:16:24.072Z,95.41
2018-02-12T06:17:24.056Z,95.6
2018-02-12T06:18:24.101Z,95.41
2018-02-12T06:19:24.031Z,95.36
2018-02-12T06:20:24.017Z,95.6
2018-02-12T06:21:24.003Z,95.26
2018-02-12T06:22:23.990Z,95.65
2018-02-12T06:23:23.973Z,95.65
2018-02-12T06:24:23.964Z,95.17
2018-02-12T06:25:23.951Z,95.26
2018-02-12T06:26:23.935Z,95.26
2018-02-12T06:27:23.918Z,95.45
2018-02-12T06:28:23.649Z,95.65
2018-02-12T06:29:23.893Z,95.55
2018-02-12T06:30:23.875Z,95.55
2018-02-12T06:31:23.861Z,95.36
2018-02-12T06:32:23.857Z,94.6
2018-02-12T06:33:23.578Z,94.79
2018-02-12T06:34:23.819Z,94.98
2018-02-12T06:35:23.806Z,94.42
2018-02-12T06:36:23.792Z,95.65
2018-02-12T06:37:23.776Z,94.89
2018-02-12T06:38:23.765Z,94.89
2018-02-12T06:39:23.748Z,94.79
2018-02-12T06:40:23.481Z,94.98
2018-02-12T06:41:23.727Z,94.98
2018-02-12T06:42:23.453Z,94.7
2018-02-12T06:43:23.705Z,94.79
2018-02-12T06:44:23.680Z,94.51
2018-02-12T06:45:23.663Z,94.89
2018-02-12T06:46:23.649Z,94.7
2018-02-12T06:47:23.637Z,94.6
2018-02-12T06:48:23.628Z,94.42
2018-02-12T06:49:23.358Z,94.6
2018-02-12T06:50:23.594Z,94.79
2018-02-12T06:51:23.580Z,93.94
2018-02-12T06:52:23.576Z,94.23
2018-02-12T06:53:23.556Z,94.04
2018-02-12T06:54:23.287Z,94.32
2018-02-12T06:55:23.528Z,94.04
2018-02-12T06:56:23.260Z,94.23
2018-02-12T06:57:23.498Z,94.42
2018-02-12T06:58:23.483Z,94.23
2018-02-12T06:59:23.470Z,94.32
2018-02-12T07:00:23.460Z,93.94
2018-02-12T07:01:23.444Z,94.89
2018-02-12T07:02:23.436Z,94.89
2018-02-12T07:03:23.413Z,94.79
2018-02-12T07:04:23.406Z,94.32
2018-02-12T07:05:23.392Z,93.94
2018-02-12T07:06:23.383Z,94.04
2018-02-12T07:07:23.362Z,94.32
2018-02-12T07:08:23.093Z,93.94
2018-02-12T07:09:23.333Z,94.42
2018-02-12T07:10:23.367Z,94.32
2018-02-12T07:11:23.304Z,94.51
2018-02-12T07:12:23.291Z,94.13
2018-02-12T07:13:23.284Z,94.7
2018-02-12T07:14:23.269Z,93.94
2018-02-12T07:15:23.254Z,93.94
2018-02-12T07:16:23.235Z,94.13
2018-02-12T07:17:22.968Z,93.94
2018-02-12T07:18:23.206Z,94.32
2018-02-12T07:19:23.202Z,93.75
2018-02-12T07:20:23.179Z,94.13
2018-02-12T07:21:23.181Z,93.84
2018-02-12T07:22:23.152Z,93.94
2018-02-12T07:23:23.141Z,94.13
2018-02-12T07:24:23.127Z,94.13
2018-02-12T07:25:23.110Z,94.18
2018-02-12T07:26:23.104Z,94.18
2018-02-12T07:27:22.834Z,94.18
2018-02-12T07:28:23.071Z,93.61
2018-02-12T07:30:23.056Z,93.23
2018-02-12T07:31:22.778Z,93.89
2018-02-12T07:32:23.018Z,93.7
2018-02-12T07:33:23.011Z,93.23
2018-02-12T07:34:22.740Z,92.94
2018-02-12T07:35:22.983Z,93.23
2018-02-12T07:36:22.964Z,93.23
2018-02-12T07:37:22.948Z,93.51
2018-02-12T07:38:22.940Z,93.51
2018-02-12T07:39:22.923Z,93.41
2018-02-12T07:40:22.913Z,93.51
2018-02-12T07:41:22.641Z,92.94
2018-02-12T07:42:22.909Z,92.47
2018-02-12T07:43:22.871Z,92.38
2018-02-12T07:44:22.863Z,92.47
2018-02-12T07:45:22.854Z,93.04
2018-02-12T07:46:22.839Z,93.04
2018-02-12T07:47:22.816Z,92.85
2018-02-12T07:48:22.802Z,93.04
2018-02-12T07:49:22.794Z,93.04
2018-02-12T07:50:22.524Z,92.57
2018-02-12T07:51:22.779Z,92.76
2018-02-12T07:52:22.766Z,92.09
2018-02-12T07:53:22.749Z,92.09
2018-02-12T07:54:22.734Z,92.18
2018-02-12T07:55:22.709Z,92.38
2018-02-12T07:56:22.701Z,91.99
2018-02-12T07:57:22.685Z,92.23
2018-02-12T07:58:22.672Z,92.14
2018-02-12T07:59:22.656Z,92.14
2018-02-12T08:00:22.651Z,91.66
2018-02-12T08:01:22.382Z,92.14
2018-02-12T08:02:22.366Z,92.23
2018-02-12T08:03:22.608Z,92.23
2018-02-12T08:04:22.341Z,92.23
2018-02-12T08:05:22.586Z,92.33
2018-02-12T08:06:22.571Z,92.14
2018-02-12T08:07:22.564Z,91.85
2018-02-12T08:08:22.545Z,91.28
2018-02-12T08:09:22.550Z,91.47
2018-02-12T08:10:22.519Z,90.81
2018-02-12T08:12:22.496Z,90.76
2018-02-12T08:13:22.486Z,90.66
2018-02-12T08:14:22.216Z,91.33
2018-02-12T08:15:22.454Z,90.66
2018-02-12T08:16:22.450Z,90.57
2018-02-12T08:17:22.437Z,90.81
2018-02-12T08:18:22.417Z,90.9
2018-02-12T08:19:22.407Z,90.71
2018-02-12T08:20:22.393Z,90.81
2018-02-12T08:21:22.382Z,91
2018-02-12T08:22:22.375Z,91.19
2018-02-12T08:23:22.363Z,91.19
2018-02-12T08:24:22.368Z,91.28
2018-02-12T08:25:22.335Z,91.09
2018-02-12T08:26:22.321Z,91.19
2018-02-12T08:27:22.310Z,90.71
2018-02-12T08:28:22.296Z,91.19
2018-02-12T08:29:22.288Z,91.19
2018-02-12T08:30:22.278Z,91.24
2018-02-12T08:31:22.265Z,91.52
2018-02-12T08:32:22.012Z,91.24
2018-02-12T08:33:21.987Z,91.04
2018-02-12T08:34:21.993Z,90.85
2018-02-12T08:35:22.217Z,90.76
2018-02-12T08:36:22.204Z,90.47
2018-02-12T08:37:22.189Z,90
2018-02-12T08:38:22.179Z,89.62
2018-02-12T08:39:22.167Z,89.81
2018-02-12T08:40:22.173Z,89.53
2018-02-12T08:41:22.146Z,89.24
2018-02-12T08:42:22.133Z,89.24
2018-02-12T08:43:21.865Z,89.24
2018-02-12T08:44:22.107Z,89.62
2018-02-12T08:45:22.108Z,90
2018-02-12T08:46:22.085Z,90.09
2018-02-12T08:47:22.074Z,89.57
2018-02-12T08:48:22.064Z,89.47
2018-02-12T08:49:21.811Z,89.57
2018-02-12T08:50:22.036Z,89.14
2018-02-12T08:51:22.024Z,89.43
2018-02-12T08:52:21.761Z,89.57
2018-02-12T08:53:21.749Z,89.86
2018-02-12T08:54:21.994Z,89.24
2018-02-12T08:55:21.980Z,89.09
2018-02-12T08:56:21.973Z,89.19
2018-02-12T08:57:21.705Z,88.57
2018-02-12T08:58:21.947Z,88.62
2018-02-12T08:59:21.680Z,89
2018-02-12T09:00:21.938Z,88.81
2018-02-12T09:01:21.910Z,89.09
2018-02-12T09:02:21.916Z,88.43
2018-02-12T09:03:21.887Z,88.62
2018-02-12T09:04:21.876Z,88.24
2018-02-12T09:05:21.883Z,88.15
2018-02-12T09:06:21.849Z,87.38
2018-02-12T09:07:21.846Z,87.38
2018-02-12T09:08:21.578Z,87.38
2018-02-12T09:09:21.823Z,87.38
2018-02-12T09:10:21.818Z,87.67
2018-02-12T09:11:21.808Z,87.43
2018-02-12T09:12:21.782Z,86.76
2018-02-12T09:13:21.521Z,86.1
2018-02-12T09:14:21.512Z,85.81
2018-02-12T09:15:21.749Z,85.81
2018-02-12T09:16:21.738Z,85.72
2018-02-12T09:17:21.480Z,85.53
2018-02-12T09:18:21.464Z,85.81
2018-02-12T09:19:21.707Z,85.05
2018-02-12T09:20:21.705Z,85.91
2018-02-12T09:21:21.684Z,85.15
2018-02-12T09:22:21.674Z,85.19
2018-02-12T09:23:21.673Z,85.28
2018-02-12T09:24:21.653Z,83.95
2018-02-12T09:25:21.641Z,84.05
2018-02-12T09:26:21.632Z,84.43
2018-02-12T09:27:21.617Z,84.24
2018-02-12T09:28:21.610Z,84.24
2018-02-12T09:29:21.602Z,84.14
2018-02-12T09:30:21.591Z,83.39
2018-02-12T09:31:21.590Z,82.48
2018-02-12T09:32:21.577Z,82.48
2018-02-12T09:33:21.563Z,82.48
2018-02-12T09:34:21.296Z,82.28
2018-02-12T09:35:21.537Z,82
2018-02-12T09:36:21.540Z,81.33
2018-02-12T09:37:21.516Z,81.33
2018-02-12T09:38:21.508Z,81.81
2018-02-12T09:39:21.565Z,81.9
2018-02-12T09:40:21.492Z,81.62
2018-02-12T09:41:21.477Z,81.81
2018-02-12T09:42:21.474Z,82
2018-02-12T09:43:21.466Z,82.09
2018-02-12T09:44:21.445Z,81.56
2018-02-12T09:45:21.440Z,80.71
2018-02-12T09:46:21.433Z,80.42
2018-02-12T09:47:21.421Z,80.04
2018-02-12T09:48:21.413Z,79.57
2018-02-12T09:49:21.152Z,79.85
2018-02-12T09:50:21.390Z,79.28
2018-02-12T09:51:21.380Z,78.94
2018-02-12T09:52:21.379Z,78.75
2018-02-12T09:53:21.363Z,79.13
2018-02-12T09:54:21.357Z,78.37
2018-02-12T09:55:21.346Z,78.56
2018-02-12T09:56:21.338Z,78.37
2018-02-12T09:57:21.327Z,78.46
2018-02-12T09:58:21.319Z,78.27
2018-02-12T09:59:21.056Z,78.37
2018-02-12T10:00:21.046Z,77.61
2018-02-12T10:01:21.046Z,77.13
2018-02-12T10:02:21.314Z,75.7
2018-02-12T10:03:21.276Z,76.46
2018-02-12T10:04:21.264Z,76.18
2018-02-12T10:05:21.277Z,76.27
2018-02-12T10:06:21.250Z,76.37
2018-02-12T10:07:21.251Z,76.56
2018-02-12T10:08:21.235Z,76.75
2018-02-12T10:09:20.973Z,76.18
2018-02-12T10:10:21.222Z,76.46
2018-02-12T10:11:21.208Z,76.37
2018-02-12T10:12:21.196Z,76.37
2018-02-12T10:13:21.195Z,75.6
2018-02-12T10:14:21.185Z,75.7
2018-02-12T10:15:21.178Z,75.79
2018-02-12T10:16:21.171Z,75.85
2018-02-12T10:17:20.909Z,76.04
2018-02-12T10:18:20.890Z,76.52
2018-02-12T10:19:20.886Z,77
2018-02-12T10:20:21.133Z,76.81
2018-02-12T10:21:21.125Z,76.9
2018-02-12T10:22:21.114Z,77.09
2018-02-12T10:23:21.106Z,77
2018-02-12T10:24:21.088Z,77.37
2018-02-12T10:25:21.134Z,77.66
2018-02-12T10:26:21.097Z,77.66
2018-02-12T10:27:21.064Z,77.91
2018-02-12T10:28:21.070Z,77.81
2018-02-12T10:29:21.043Z,78.57
2018-02-12T10:30:21.034Z,78.38
2018-02-12T10:31:21.028Z,78.48
2018-02-12T10:32:20.763Z,78.38
2018-02-12T10:33:21.034Z,78.57
2018-02-12T10:34:20.995Z,78.57
2018-02-12T10:35:21.002Z,78.48
2018-02-12T10:36:20.981Z,78.86
2018-02-12T10:37:20.975Z,78.48
2018-02-12T10:38:20.959Z,78.96
2018-02-12T10:39:21.226Z,79.58
2018-02-12T10:40:20.942Z,79.86
2018-02-12T10:41:20.960Z,80.34
2018-02-12T10:42:20.958Z,80.34
2018-02-12T10:43:20.932Z,80.72
2018-02-12T10:44:20.648Z,81.1
2018-02-12T10:45:20.643Z,81.48
2018-02-12T10:46:20.887Z,81.58
2018-02-12T10:47:20.874Z,81.96
2018-02-12T10:48:20.870Z,81.96
2018-02-12T10:49:20.598Z,81.96
2018-02-12T10:50:20.589Z,82.05
2018-02-12T10:51:20.849Z,81.92
2018-02-12T10:52:20.591Z,81.54
2018-02-12T10:53:20.873Z,82.49
2018-02-12T10:54:20.803Z,82.2
2018-02-12T10:55:20.826Z,82.58
2018-02-12T10:56:20.791Z,83.15
2018-02-12T10:57:20.763Z,83.25
2018-02-12T10:58:20.702Z,82.87
2018-02-12T10:59:20.802Z,83.06
2018-02-12T11:00:20.521Z,83.25
2018-02-12T11:01:20.733Z,82.96
2018-02-12T11:02:20.713Z,82.87
2018-02-12T11:03:20.706Z,82.96
2018-02-12T11:04:20.716Z,83.1
2018-02-12T11:05:20.443Z,81.96
2018-02-12T11:06:20.671Z,82.05
2018-02-12T11:07:20.478Z,81.96
2018-02-12T11:08:20.711Z,81.86
2018-02-12T11:09:20.657Z,81.86
2018-02-12T11:10:20.633Z,81.29
2018-02-12T11:11:20.619Z,81.33
2018-02-12T11:12:20.638Z,81.33
2018-02-12T11:13:20.603Z,80.19
2018-02-12T11:14:20.651Z,80.29
2018-02-12T11:15:20.607Z,80.1
2018-02-12T11:16:20.569Z,78.77
2018-02-12T11:17:20.562Z,78.57
2018-02-12T11:18:20.548Z,78.71
2018-02-12T11:19:20.544Z,78.38
2018-02-12T11:20:20.537Z,78.71
2018-02-12T11:21:20.274Z,78.23
2018-02-12T11:22:20.511Z,78.52
2018-02-12T11:23:20.499Z,78.42
2018-02-12T11:24:20.488Z,78.33
2018-02-12T11:25:20.233Z,78.61
2018-02-12T11:26:20.483Z,77.95
2018-02-12T11:27:20.460Z,77.37
2018-02-12T11:28:20.466Z,77.47
2018-02-12T11:29:20.491Z,77.19
2018-02-12T11:30:20.432Z,76.9
2018-02-12T11:31:20.458Z,76.42
2018-02-12T11:32:20.161Z,76.27
2018-02-12T11:33:20.224Z,75.85
2018-02-12T11:34:20.458Z,75.67
2018-02-12T11:35:20.446Z,75.99
2018-02-12T11:36:20.386Z,75.32
2018-02-12T11:37:20.388Z,74.27
2018-02-12T11:38:20.361Z,74.56
2018-02-12T11:39:20.098Z,74.27
2018-02-12T11:40:20.360Z,74.46
2018-02-12T11:41:20.625Z,74.33
2018-02-12T11:42:20.079Z,74.65
2018-02-12T11:43:20.322Z,74.37
2018-02-12T11:44:20.310Z,74.43
2018-02-12T11:45:20.065Z,74.75
2018-02-12T11:46:20.292Z,74.27
2018-02-12T11:47:20.305Z,74.65
2018-02-12T11:48:20.270Z,74.43
2018-02-12T11:49:20.005Z,74.08
2018-02-12T11:50:19.994Z,73.28
2018-02-12T11:51:20.238Z,73.32
2018-02-12T11:52:20.227Z,72.71
2018-02-12T11:53:20.252Z,72.62
2018-02-12T11:54:20.209Z,72.75
2018-02-12T11:55:20.020Z,72.37
2018-02-12T11:56:20.233Z,72.65
2018-02-12T11:57:20.190Z,73.61
2018-02-12T11:58:19.972Z,72.75
2018-02-12T11:59:20.173Z,72.71
2018-02-12T12:00:20.171Z,73.19
2018-02-12T12:01:20.151Z,73.66
2018-02-12T12:02:20.138Z,74.24
2018-02-12T12:03:20.131Z,74.43
2018-02-12T12:04:20.124Z,74.52
2018-02-12T12:05:20.168Z,74.62
2018-02-12T12:06:20.111Z,74.43
2018-02-12T12:07:20.107Z,74.62
2018-02-12T12:08:20.088Z,74.71
2018-02-12T12:09:19.836Z,74.24
2018-02-12T12:10:20.153Z,74.52
2018-02-12T12:11:20.073Z,75.19
2018-02-12T12:12:20.055Z,75.47
2018-02-12T12:13:20.062Z,75.19
2018-02-12T12:14:20.030Z,75.19
2018-02-12T12:15:19.767Z,74.8
2018-02-12T12:16:20.033Z,74.71
2018-02-12T12:17:19.748Z,75.09
2018-02-12T12:18:19.990Z,74.8
2018-02-12T12:19:19.977Z,75.38
2018-02-12T12:20:19.977Z,75.15
2018-02-12T12:21:19.964Z,75.81
2018-02-12T12:22:19.951Z,75.81
2018-02-12T12:23:19.940Z,75.72
2018-02-12T12:24:19.935Z,75.91
2018-02-12T12:25:19.927Z,75.81
2018-02-12T12:26:19.661Z,75.81
2018-02-12T12:27:19.905Z,75.91
2018-02-12T12:28:19.893Z,76.48
2018-02-12T12:29:19.633Z,76.01
2018-02-12T12:30:19.906Z,76.96
2018-02-12T12:31:19.862Z,77.15
2018-02-12T12:32:19.867Z,77.15
2018-02-12T12:33:19.885Z,76.96
2018-02-12T12:34:19.839Z,77.43
2018-02-12T12:35:19.826Z,77.34
2018-02-12T12:36:34.478Z,78.48
2018-02-12T12:37:19.561Z,78.57
2018-02-12T12:38:19.798Z,79.11
2018-02-12T12:39:19.796Z,79.39
2018-02-12T12:40:19.769Z,79.01
2018-02-12T12:41:19.764Z,79.11
2018-02-12T12:42:19.752Z,79.01
2018-02-12T12:43:19.743Z,79.96
2018-02-12T12:44:19.741Z,79.39
2018-02-12T12:45:19.735Z,79.39
2018-02-12T12:46:19.715Z,79.77
2018-02-12T12:47:22.172Z,79.3
2018-02-12T12:48:19.692Z,79.86
2018-02-12T12:49:19.453Z,80.15
2018-02-12T12:50:19.679Z,80.11
2018-02-12T12:51:19.667Z,80.11
2018-02-12T12:52:19.659Z,80.3
2018-02-12T12:53:34.300Z,81.44
2018-02-12T12:54:19.621Z,81.73
2018-02-12T12:55:19.613Z,82.39
2018-02-12T12:56:19.605Z,83.06
2018-02-12T12:57:19.589Z,82.87